createdAt,value
2022-09-14T00:02:48.378Z,3.30
2022-09-14T00:06:25.402Z,3.10
2022-09-14T00:10:01.508Z,3.00
2022-09-14T00:13:40.126Z,2.80
2022-09-14T00:17:15.596Z,3.00
2022-09-14T00:21:12.019Z,3.80
2022-09-14T00:24:35.202Z,3.70
2022-09-14T00:28:29.587Z,3.60
2022-09-14T00:31:51.616Z,3.20
2022-09-14T00:35:46.876Z,3.30
2022-09-14T00:39:09.259Z,3.40
2022-09-14T00:42:46.267Z,3.40
2022-09-14T00:46:23.654Z,3.70
2022-09-14T00:50:19.563Z,3.10
2022-09-14T00:53:41.989Z,3.40
2022-09-14T00:57:19.567Z,2.70
2022-09-14T01:01:14.706Z,3.40
2022-09-14T01:04:37.217Z,3.50
2022-09-14T01:08:15.939Z,3.70
2022-09-14T01:12:24.003Z,2.90
2022-09-14T01:16:29.965Z,3.10
2022-09-14T01:20:39.739Z,2.80
2022-09-14T01:24:21.608Z,2.70
2022-09-14T01:28:09.682Z,2.70
2022-09-14T01:32:02.913Z,2.90
2022-09-14T01:35:54.331Z,3.10
2022-09-14T01:39:17.741Z,3.00
2022-09-14T01:43:10.782Z,2.80
2022-09-14T01:46:41.955Z,2.70
2022-09-14T01:50:19.852Z,2.80
2022-09-14T01:53:58.078Z,2.50
2022-09-14T01:57:39.844Z,2.90
2022-09-14T02:01:06.052Z,2.70
2022-09-14T02:05:26.000Z,3.00
2022-09-14T02:08:48.944Z,2.40
2022-09-14T02:12:44.062Z,3.30
2022-09-14T02:16:06.238Z,2.90
2022-09-14T02:19:50.025Z,3.10
2022-09-14T02:23:20.032Z,3.20
2022-09-14T02:26:58.761Z,3.10
2022-09-14T02:31:17.284Z,3.00
2022-09-14T02:34:57.752Z,2.60
2022-09-14T02:38:34.544Z,2.90
2022-09-14T02:42:09.120Z,2.60
2022-09-14T02:46:02.105Z,3.00
2022-09-14T02:49:38.470Z,2.80
2022-09-14T02:53:12.985Z,3.60
2022-09-14T02:56:38.794Z,3.60
2022-09-14T03:00:38.308Z,3.00
2022-09-14T03:04:00.206Z,3.50
2022-09-14T03:07:37.090Z,4.10
2022-09-14T03:11:32.564Z,3.30
2022-09-14T03:14:55.789Z,3.60
2022-09-14T03:18:31.237Z,3.70
2022-09-14T03:22:27.171Z,3.60
2022-09-14T03:25:49.369Z,3.70
2022-09-14T03:29:26.082Z,3.60
2022-09-14T03:33:03.461Z,3.90
2022-09-14T03:36:39.559Z,3.90
2022-09-14T03:40:21.577Z,3.70
2022-09-14T03:43:53.627Z,4.00
2022-09-14T03:47:49.320Z,3.90
2022-09-14T03:51:14.197Z,3.70
2022-09-14T03:54:48.175Z,4.30
2022-09-14T03:58:25.912Z,3.90
2022-09-14T04:02:20.442Z,3.80
2022-09-14T04:06:04.707Z,3.80
2022-09-14T04:09:45.049Z,3.60
2022-09-14T04:13:06.917Z,3.70
2022-09-14T04:16:44.748Z,3.00
2022-09-14T04:20:20.431Z,3.50
2022-09-14T04:24:16.523Z,3.50
2022-09-14T04:27:38.476Z,2.70
2022-09-14T04:31:34.890Z,2.80
2022-09-14T04:34:56.646Z,3.10
2022-09-14T04:38:53.325Z,2.90
2022-09-14T04:42:15.502Z,3.30
2022-09-14T04:45:52.939Z,3.50
2022-09-14T04:49:29.276Z,3.50
2022-09-14T04:53:05.952Z,3.00
2022-09-14T04:57:01.570Z,3.00
2022-09-14T05:00:23.577Z,3.00
2022-09-14T05:04:19.533Z,3.10
2022-09-14T05:07:41.058Z,3.20
2022-09-14T05:11:23.439Z,3.20
2022-09-14T05:15:13.936Z,3.50
2022-09-14T05:18:57.373Z,3.00
2022-09-14T05:22:22.252Z,3.80
2022-09-14T05:25:55.944Z,3.30
2022-09-14T05:29:32.821Z,3.70
2022-09-14T05:33:09.459Z,3.10
2022-09-14T05:36:46.902Z,4.00
2022-09-14T05:40:23.303Z,4.10
2022-09-14T05:44:18.862Z,4.00
2022-09-14T05:47:40.662Z,4.00
2022-09-14T05:51:24.332Z,3.80
2022-09-14T05:55:13.968Z,3.20
2022-09-14T05:58:37.127Z,4.30
2022-09-14T06:02:31.553Z,4.10
2022-09-14T06:05:57.972Z,4.70
2022-09-14T06:09:33.242Z,4.30
2022-09-14T06:13:07.847Z,4.60
2022-09-14T06:16:43.960Z,4.20
2022-09-14T06:20:20.843Z,3.60
2022-09-14T06:23:58.152Z,4.60
2022-09-14T06:27:34.241Z,4.10
2022-09-14T06:31:13.468Z,4.40
2022-09-14T06:35:12.227Z,4.50
2022-09-14T06:38:34.648Z,4.20
2022-09-14T06:42:11.323Z,4.20
2022-09-14T06:45:58.275Z,5.30
2022-09-14T06:49:24.986Z,5.00
2022-09-14T06:53:20.705Z,4.50
2022-09-14T06:56:44.004Z,5.00
2022-09-14T07:00:19.305Z,4.20
2022-09-14T07:03:58.372Z,4.80
2022-09-14T07:07:32.622Z,4.90
2022-09-14T07:11:11.548Z,5.10
2022-09-14T07:14:46.167Z,5.50
2022-09-14T07:18:27.765Z,4.50
2022-09-14T07:22:00.829Z,4.90
2022-09-14T07:25:36.630Z,4.70
2022-09-14T07:29:19.240Z,4.80
2022-09-14T07:33:09.205Z,4.10
2022-09-14T07:36:34.975Z,4.90
2022-09-14T07:40:27.804Z,5.20
2022-09-14T07:44:13.605Z,5.10
2022-09-14T07:47:35.459Z,4.90
2022-09-14T07:51:34.094Z,4.50
2022-09-14T07:54:56.634Z,4.20
2022-09-14T07:58:33.533Z,4.30
2022-09-14T08:02:11.412Z,4.00
2022-09-14T08:05:46.215Z,4.70
2022-09-14T08:09:23.596Z,4.60
2022-09-14T08:13:00.604Z,4.30
2022-09-14T08:16:38.888Z,4.00
2022-09-14T08:20:13.468Z,3.60
2022-09-14T08:23:50.799Z,4.20
2022-09-14T08:27:45.965Z,3.40
2022-09-14T08:31:13.170Z,3.40
2022-09-14T08:34:44.533Z,3.80
2022-09-14T08:38:21.095Z,3.90
2022-09-14T08:42:00.285Z,3.30
2022-09-14T08:46:01.268Z,3.10
2022-09-14T08:49:45.283Z,3.40
2022-09-14T08:53:08.948Z,3.10
2022-09-14T08:56:52.402Z,3.60
2022-09-14T09:00:25.755Z,2.80
2022-09-14T09:04:07.625Z,3.30
2022-09-14T09:08:07.977Z,3.00
2022-09-14T09:11:51.891Z,3.00
2022-09-14T09:15:37.071Z,3.70
2022-09-14T09:19:36.623Z,3.30
2022-09-14T09:23:20.827Z,3.40
2022-09-14T09:26:43.397Z,3.10
2022-09-14T09:30:40.753Z,3.70
2022-09-14T09:34:04.014Z,3.50
2022-09-14T09:37:40.752Z,4.60
2022-09-14T09:41:24.089Z,4.00
2022-09-14T09:45:01.738Z,2.90
2022-09-14T09:48:40.622Z,3.00
2022-09-14T09:52:14.649Z,3.10
2022-09-14T09:55:48.994Z,3.30
2022-09-14T09:59:35.335Z,3.60
2022-09-14T10:03:50.711Z,2.70
2022-09-14T10:07:21.693Z,3.90
2022-09-14T10:11:29.475Z,3.20
2022-09-14T10:15:08.391Z,3.10
2022-09-14T10:18:31.414Z,3.90
2022-09-14T10:22:38.123Z,3.50
2022-09-14T10:26:13.465Z,3.20
2022-09-14T10:29:44.548Z,3.70
2022-09-14T10:33:34.633Z,3.90
2022-09-14T10:37:32.132Z,3.20
2022-09-14T10:41:00.846Z,3.20
2022-09-14T10:44:48.252Z,3.10
2022-09-14T10:48:16.599Z,3.40
2022-09-14T10:52:40.677Z,3.10
2022-09-14T10:56:17.781Z,3.20
2022-09-14T10:59:51.725Z,2.50
2022-09-14T11:03:51.443Z,3.00
2022-09-14T11:07:38.985Z,3.60
2022-09-14T11:11:37.935Z,3.30
2022-09-14T11:15:10.995Z,3.10
2022-09-14T11:18:43.172Z,3.30
2022-09-14T11:22:28.138Z,3.20
2022-09-14T11:26:03.833Z,3.00
2022-09-14T11:29:50.211Z,3.30
2022-09-14T11:33:22.398Z,4.10
2022-09-14T11:37:12.889Z,2.80
2022-09-14T11:40:53.505Z,3.30
2022-09-14T11:44:23.385Z,3.20
2022-09-14T11:48:38.354Z,3.40
2022-09-14T11:52:17.103Z,3.40
2022-09-14T11:55:49.600Z,3.60
2022-09-14T11:59:36.539Z,3.50
2022-09-14T12:03:17.658Z,3.50
2022-09-14T12:06:40.181Z,3.70
2022-09-14T12:10:21.154Z,3.80
2022-09-14T12:14:33.359Z,3.20
2022-09-14T12:18:05.608Z,3.10
2022-09-14T12:21:33.255Z,2.70
2022-09-14T12:25:09.917Z,4.00
2022-09-14T12:29:25.569Z,3.70
2022-09-14T12:32:47.862Z,3.90
2022-09-14T12:36:27.294Z,4.20
2022-09-14T12:40:33.796Z,5.20
2022-09-14T12:44:29.977Z,6.50
2022-09-14T12:48:11.151Z,4.90
2022-09-14T12:51:53.477Z,3.80
2022-09-14T12:55:25.660Z,4.50
2022-09-14T12:59:11.652Z,3.70
2022-09-14T13:03:15.944Z,5.00
2022-09-14T13:07:00.837Z,3.50
2022-09-14T13:10:50.820Z,3.30
2022-09-14T13:14:39.484Z,3.30
2022-09-14T13:18:05.668Z,3.30
2022-09-14T13:21:46.342Z,3.80
2022-09-14T13:25:36.422Z,2.90
2022-09-14T13:29:01.801Z,3.00
2022-09-14T13:32:42.674Z,2.70
2022-09-14T13:36:19.939Z,3.40
2022-09-14T13:39:53.614Z,3.80
2022-09-14T13:43:46.829Z,4.10
2022-09-14T13:47:13.507Z,4.10
2022-09-14T13:50:51.552Z,4.90
2022-09-14T13:54:41.603Z,6.60
2022-09-14T13:58:09.515Z,5.60
2022-09-14T14:01:46.334Z,5.10
2022-09-14T14:05:30.390Z,6.00
2022-09-14T14:09:01.641Z,5.50
2022-09-14T14:12:34.084Z,7.10
2022-09-14T14:16:26.809Z,6.60
2022-09-14T14:19:52.474Z,5.40
2022-09-14T14:23:26.309Z,6.20
2022-09-14T14:27:03.479Z,6.30
2022-09-14T14:31:05.209Z,6.50
2022-09-14T14:34:49.491Z,5.70
2022-09-14T14:38:30.498Z,5.30
2022-09-14T14:42:13.472Z,5.60
2022-09-14T14:45:36.658Z,5.10
2022-09-14T14:49:14.593Z,4.70
2022-09-14T14:52:51.583Z,4.50
2022-09-14T14:56:50.106Z,4.30
2022-09-14T15:00:34.644Z,4.70
2022-09-14T15:03:56.940Z,4.70
2022-09-14T15:07:37.136Z,4.50
2022-09-14T15:11:17.996Z,4.90
2022-09-14T15:14:47.405Z,6.70
2022-09-14T15:18:23.994Z,6.00
2022-09-14T15:22:01.922Z,6.00
2022-09-14T15:25:37.618Z,4.90
2022-09-14T15:29:18.351Z,4.80
2022-09-14T15:32:51.314Z,5.10
2022-09-14T15:36:57.566Z,13.80
2022-09-14T15:40:20.375Z,14.90
2022-09-14T15:43:57.121Z,7.60
2022-09-14T15:47:36.459Z,6.40
2022-09-14T15:51:11.855Z,17.70
2022-09-14T15:54:48.521Z,25.90
2022-09-14T15:58:23.859Z,25.00
2022-09-14T16:02:01.302Z,11.20
2022-09-14T16:05:59.124Z,9.70
2022-09-14T16:09:22.519Z,12.00
2022-09-14T16:12:58.325Z,7.50
2022-09-14T16:16:36.113Z,8.60
2022-09-14T16:20:11.489Z,10.70
2022-09-14T16:24:13.503Z,7.70
2022-09-14T16:27:35.467Z,8.80
2022-09-14T16:31:34.349Z,12.80
2022-09-14T16:35:15.413Z,38.30
2022-09-14T16:38:38.555Z,15.80
2022-09-14T16:42:32.996Z,10.10
2022-09-14T16:46:15.881Z,10.50
2022-09-14T16:49:39.462Z,10.80
2022-09-14T16:53:14.820Z,8.20
2022-09-14T16:56:56.134Z,10.00
2022-09-14T17:00:28.132Z,10.20
2022-09-14T17:04:12.029Z,9.40
2022-09-14T17:08:00.717Z,17.30
2022-09-14T17:11:24.151Z,16.40
2022-09-14T17:14:59.901Z,26.30
2022-09-14T17:19:01.654Z,18.60
2022-09-14T17:22:23.653Z,12.10
2022-09-14T17:26:21.534Z,13.00
2022-09-14T17:29:44.120Z,10.40
2022-09-14T17:33:21.151Z,12.70
2022-09-14T17:36:57.641Z,20.90
2022-09-14T17:40:52.743Z,30.30
2022-09-14T17:44:14.957Z,27.10
2022-09-14T17:47:51.233Z,19.30
2022-09-14T17:51:29.751Z,16.10
2022-09-14T17:55:06.791Z,17.30
2022-09-14T17:58:42.592Z,13.40
2022-09-14T18:02:18.693Z,12.10
2022-09-14T18:06:14.082Z,11.90
2022-09-14T18:09:37.676Z,9.30
2022-09-14T18:13:13.197Z,8.90
2022-09-14T18:16:50.314Z,8.80
2022-09-14T18:20:27.058Z,10.60
2022-09-14T18:24:22.643Z,7.20
2022-09-14T18:27:44.751Z,5.70
2022-09-14T18:31:22.343Z,5.20
2022-09-14T18:34:58.465Z,6.50
2022-09-14T18:38:35.066Z,6.70
2022-09-14T18:42:12.079Z,5.90
2022-09-14T18:45:48.931Z,16.40
2022-09-14T18:49:25.846Z,11.20
2022-09-14T18:53:02.117Z,10.00
2022-09-14T18:56:40.214Z,8.80
2022-09-14T19:00:18.760Z,7.60
2022-09-14T19:03:53.978Z,8.00
2022-09-14T19:07:29.892Z,7.70
2022-09-14T19:11:09.684Z,7.40
2022-09-14T19:14:42.861Z,9.40
2022-09-14T19:18:39.565Z,6.80
2022-09-14T19:22:01.928Z,7.10
2022-09-14T19:26:12.090Z,6.00
2022-09-14T19:29:34.301Z,5.80
2022-09-14T19:33:10.832Z,5.20
2022-09-14T19:37:06.462Z,5.10
2022-09-14T19:40:52.152Z,5.70
2022-09-14T19:44:16.275Z,5.40
2022-09-14T19:47:52.653Z,4.80
2022-09-14T19:51:30.807Z,5.20
2022-09-14T19:55:25.890Z,4.10
2022-09-14T19:59:07.696Z,5.60
2022-09-14T20:02:48.849Z,4.10
2022-09-14T20:06:21.043Z,3.90
2022-09-14T20:09:47.778Z,3.90
2022-09-14T20:13:24.613Z,3.50
2022-09-14T20:17:01.535Z,3.90
2022-09-14T20:20:38.431Z,2.70
2022-09-14T20:24:35.193Z,2.70
2022-09-14T20:27:57.215Z,2.50
2022-09-14T20:31:35.449Z,2.20
2022-09-14T20:35:10.979Z,2.20
2022-09-14T20:39:07.629Z,1.90
2022-09-14T20:42:47.916Z,2.40
2022-09-14T20:46:15.107Z,1.90
2022-09-14T20:49:46.511Z,1.90
2022-09-14T20:53:30.158Z,2.00
2022-09-14T20:57:04.316Z,2.10
2022-09-14T21:00:36.819Z,2.30
2022-09-14T21:04:16.368Z,2.50
2022-09-14T21:07:56.116Z,2.70
2022-09-14T21:11:30.070Z,2.60
2022-09-14T21:15:05.478Z,2.60
2022-09-14T21:19:07.072Z,2.90
2022-09-14T21:22:29.451Z,2.80
2022-09-14T21:26:26.583Z,2.90
2022-09-14T21:29:49.710Z,3.20
2022-09-14T21:33:25.278Z,2.70
2022-09-14T21:37:02.665Z,3.20
2022-09-14T21:40:45.401Z,3.10
2022-09-14T21:44:16.540Z,2.90
2022-09-14T21:47:54.015Z,2.80
2022-09-14T21:51:32.669Z,3.00
2022-09-14T21:55:06.403Z,3.00
2022-09-14T21:59:06.112Z,3.00
2022-09-14T22:02:46.739Z,3.20
2022-09-14T22:06:13.033Z,3.00
2022-09-14T22:09:45.467Z,3.30
2022-09-14T22:13:22.709Z,3.50
2022-09-14T22:16:59.096Z,3.80
2022-09-14T22:20:35.893Z,4.60
2022-09-14T22:24:19.221Z,4.70
2022-09-14T22:28:08.342Z,4.60
2022-09-14T22:31:34.555Z,4.50
2022-09-14T22:35:25.875Z,5.10
2022-09-14T22:38:47.924Z,5.10
2022-09-14T22:42:24.877Z,5.50
2022-09-14T22:46:01.996Z,5.50
2022-09-14T22:49:39.122Z,5.80
2022-09-14T22:53:34.165Z,5.50
2022-09-14T22:56:56.440Z,5.30
2022-09-14T23:00:34.623Z,5.60
2022-09-14T23:04:28.586Z,5.20
2022-09-14T23:08:10.590Z,4.60
2022-09-14T23:11:32.541Z,5.50
2022-09-14T23:15:29.394Z,5.20
2022-09-14T23:19:13.637Z,4.80
2022-09-14T23:22:55.317Z,5.10
2022-09-14T23:26:17.601Z,5.30
2022-09-14T23:29:54.849Z,5.10
2022-09-14T23:33:52.302Z,4.70
2022-09-14T23:37:33.224Z,5.50
2022-09-14T23:41:16.051Z,5.10
2022-09-14T23:44:42.376Z,5.40
2022-09-14T23:48:15.604Z,4.90
2022-09-14T23:52:10.330Z,5.00
2022-09-14T23:55:32.676Z,5.10
2022-09-14T23:59:12.183Z,5.00
